createdAt,value
2018-06-27T00:00:03.160Z,6.20
2018-06-27T00:01:03.153Z,5.80
2018-06-27T00:02:03.145Z,5.50
2018-06-27T00:03:03.141Z,4.90
2018-06-27T00:04:03.131Z,5.90
2018-06-27T00:05:03.128Z,5.60
2018-06-27T00:06:03.118Z,5.30
2018-06-27T00:07:03.110Z,5.20
2018-06-27T00:08:03.102Z,5.60
2018-06-27T00:09:03.098Z,5.60
2018-06-27T00:10:03.088Z,5.40
2018-06-27T00:11:03.081Z,5.60
2018-06-27T00:12:03.096Z,6.10
2018-06-27T00:13:03.069Z,5.80
2018-06-27T00:14:03.059Z,5.60
2018-06-27T00:15:03.053Z,5.90
2018-06-27T00:16:03.047Z,5.90
2018-06-27T00:17:03.039Z,5.60
2018-06-27T00:18:03.031Z,5.10
2018-06-27T00:19:03.025Z,6.20
2018-06-27T00:20:03.018Z,5.40
2018-06-27T00:21:03.010Z,5.50
2018-06-27T00:22:03.003Z,5.90
2018-06-27T00:23:02.994Z,5.60
2018-06-27T00:24:02.989Z,5.30
2018-06-27T00:25:02.980Z,4.70
2018-06-27T00:26:02.972Z,4.80
2018-06-27T00:27:02.965Z,5.10
2018-06-27T00:28:02.961Z,6.20
2018-06-27T00:29:02.951Z,5.40
2018-06-27T00:30:02.944Z,5.40
2018-06-27T00:31:02.939Z,5.70
2018-06-27T00:32:02.929Z,5.20
2018-06-27T00:33:02.924Z,4.70
2018-06-27T00:34:02.914Z,5.20
2018-06-27T00:35:02.906Z,5.30
2018-06-27T00:36:02.899Z,4.50
2018-06-27T00:37:02.892Z,5.50
2018-06-27T00:38:02.884Z,4.90
2018-06-27T00:39:02.885Z,5.00
2018-06-27T00:40:02.871Z,5.80
2018-06-27T00:41:02.862Z,5.60
2018-06-27T00:42:02.859Z,5.70
2018-06-27T00:43:02.847Z,5.70
2018-06-27T00:44:02.840Z,5.30
2018-06-27T00:45:02.843Z,5.40
2018-06-27T00:46:02.825Z,5.80
2018-06-27T00:47:02.817Z,6.10
2018-06-27T00:48:02.813Z,5.40
2018-06-27T00:49:02.802Z,6.10
2018-06-27T00:50:02.794Z,5.70
2018-06-27T00:51:02.789Z,5.50
2018-06-27T00:52:02.783Z,7.00
2018-06-27T00:53:02.773Z,5.30
2018-06-27T00:54:02.764Z,5.20
2018-06-27T00:55:02.757Z,6.10
2018-06-27T00:56:02.751Z,5.30
2018-06-27T00:57:02.743Z,5.60
2018-06-27T00:58:02.734Z,6.00
2018-06-27T00:59:02.727Z,5.40
2018-06-27T01:00:02.720Z,6.40
2018-06-27T01:01:02.712Z,5.30
2018-06-27T01:02:02.705Z,6.20
2018-06-27T01:03:02.699Z,6.00
2018-06-27T01:04:02.693Z,6.20
2018-06-27T01:05:02.682Z,6.10
2018-06-27T01:06:02.676Z,7.60
2018-06-27T01:07:02.667Z,7.40
2018-06-27T01:08:02.660Z,5.70
2018-06-27T01:09:02.652Z,6.80
2018-06-27T01:10:02.645Z,5.60
2018-06-27T01:11:02.636Z,5.90
2018-06-27T01:12:02.629Z,5.80
2018-06-27T01:13:02.622Z,7.10
2018-06-27T01:14:02.816Z,6.20
2018-06-27T01:15:02.606Z,5.00
2018-06-27T01:16:02.600Z,6.90
2018-06-27T01:17:02.591Z,6.90
2018-06-27T01:18:02.583Z,5.40
2018-06-27T01:19:02.576Z,5.20
2018-06-27T01:20:02.581Z,5.50
2018-06-27T01:21:02.561Z,4.60
2018-06-27T01:22:02.552Z,4.90
2018-06-27T01:23:02.549Z,5.40
2018-06-27T01:24:02.538Z,5.10
2018-06-27T01:25:02.530Z,5.30
2018-06-27T01:26:02.522Z,5.50
2018-06-27T01:27:02.516Z,5.00
2018-06-27T01:28:02.506Z,5.60
2018-06-27T01:29:02.499Z,4.80
2018-06-27T01:30:02.695Z,5.20
2018-06-27T01:31:02.483Z,5.80
2018-06-27T01:32:02.484Z,5.50
2018-06-27T01:33:02.472Z,6.90
2018-06-27T01:34:02.459Z,6.20
2018-06-27T01:35:02.453Z,5.90
2018-06-27T01:36:02.448Z,6.50
2018-06-27T01:37:02.437Z,7.50
2018-06-27T01:38:02.434Z,6.30
2018-06-27T01:39:02.421Z,6.50
2018-06-27T01:40:02.414Z,5.60
2018-06-27T01:41:02.406Z,7.40
2018-06-27T01:42:02.398Z,6.80
2018-06-27T01:43:02.390Z,5.60
2018-06-27T01:44:02.384Z,7.20
2018-06-27T01:45:02.375Z,7.80
2018-06-27T01:46:02.366Z,8.10
2018-06-27T01:47:02.359Z,9.40
2018-06-27T01:48:02.352Z,9.40
2018-06-27T01:49:02.344Z,7.20
2018-06-27T01:50:02.336Z,11.00
2018-06-27T01:51:02.329Z,9.90
2018-06-27T01:52:02.323Z,10.40
2018-06-27T01:53:02.313Z,9.10
2018-06-27T01:54:02.310Z,10.20
2018-06-27T01:55:02.298Z,9.50
2018-06-27T01:56:02.290Z,8.40
2018-06-27T01:57:02.282Z,7.70
2018-06-27T01:58:02.273Z,9.40
2018-06-27T01:59:02.266Z,7.60
2018-06-27T02:00:02.260Z,8.80
2018-06-27T02:01:02.251Z,7.40
2018-06-27T02:02:02.248Z,6.80
2018-06-27T02:03:02.235Z,7.90
2018-06-27T02:04:02.227Z,8.20
2018-06-27T02:05:02.220Z,7.40
2018-06-27T02:06:02.212Z,6.40
2018-06-27T02:07:02.203Z,6.90
2018-06-27T02:08:02.196Z,6.20
2018-06-27T02:09:02.188Z,6.60
2018-06-27T02:10:02.179Z,6.40
2018-06-27T02:11:02.172Z,7.10
2018-06-27T02:12:02.164Z,7.00
2018-06-27T02:13:02.159Z,5.70
2018-06-27T02:14:02.153Z,6.60
2018-06-27T02:15:02.141Z,5.30
2018-06-27T02:16:02.133Z,5.50
2018-06-27T02:17:02.127Z,5.70
2018-06-27T02:18:02.116Z,5.20
2018-06-27T02:19:02.112Z,6.10
2018-06-27T02:20:02.102Z,6.50
2018-06-27T02:21:02.093Z,5.70
2018-06-27T02:22:02.088Z,6.10
2018-06-27T02:23:02.077Z,5.00
2018-06-27T02:24:02.069Z,5.70
2018-06-27T02:25:02.062Z,5.70
2018-06-27T02:26:02.053Z,5.50
2018-06-27T02:27:02.045Z,6.20
2018-06-27T02:28:02.037Z,6.00
2018-06-27T02:29:02.030Z,5.20
2018-06-27T02:30:02.026Z,5.50
2018-06-27T02:31:02.015Z,6.20
2018-06-27T02:32:02.009Z,5.70
2018-06-27T02:33:01.998Z,6.30
2018-06-27T02:34:02.250Z,6.20
2018-06-27T02:35:01.981Z,6.80
2018-06-27T02:36:01.973Z,6.80
2018-06-27T02:37:01.985Z,5.90
2018-06-27T02:38:01.961Z,6.20
2018-06-27T02:39:01.949Z,5.40
2018-06-27T02:40:01.941Z,5.70
2018-06-27T02:41:01.933Z,6.70
2018-06-27T02:42:01.925Z,6.10
2018-06-27T02:43:01.916Z,5.90
2018-06-27T02:44:01.908Z,6.30
2018-06-27T02:45:01.904Z,6.30
2018-06-27T02:46:01.892Z,6.10
2018-06-27T02:47:01.884Z,6.90
2018-06-27T02:48:01.880Z,6.40
2018-06-27T02:49:01.879Z,6.40
2018-06-27T02:50:01.869Z,6.40
2018-06-27T02:51:01.853Z,5.80
2018-06-27T02:52:01.844Z,6.40
2018-06-27T02:53:01.842Z,5.00
2018-06-27T02:54:01.832Z,6.30
2018-06-27T02:55:01.820Z,5.60
2018-06-27T02:56:01.812Z,5.70
2018-06-27T02:57:01.866Z,4.70
2018-06-27T02:58:01.795Z,6.30
2018-06-27T02:59:01.793Z,5.50
2018-06-27T03:00:01.780Z,5.80
2018-06-27T03:01:01.771Z,6.50
2018-06-27T03:02:01.770Z,5.00
2018-06-27T03:03:01.754Z,5.20
2018-06-27T03:04:01.746Z,5.40
2018-06-27T03:05:01.754Z,5.90
2018-06-27T03:06:01.731Z,6.20
2018-06-27T03:07:01.730Z,5.80
2018-06-27T03:08:01.715Z,5.30
2018-06-27T03:09:01.706Z,5.00
2018-06-27T03:10:01.697Z,5.60
2018-06-27T03:11:01.691Z,5.20
2018-06-27T03:12:01.681Z,5.30
2018-06-27T03:13:01.673Z,5.50
2018-06-27T03:14:01.671Z,5.10
2018-06-27T03:15:01.656Z,4.90
2018-06-27T03:16:01.652Z,6.80
2018-06-27T03:17:01.639Z,5.40
2018-06-27T03:18:01.635Z,4.80
2018-06-27T03:19:01.622Z,5.40
2018-06-27T03:20:01.650Z,5.40
2018-06-27T03:21:01.611Z,6.30
2018-06-27T03:22:01.599Z,6.00
2018-06-27T03:23:01.590Z,5.70
2018-06-27T03:24:01.584Z,5.50
2018-06-27T03:25:01.573Z,6.00
2018-06-27T03:26:01.565Z,5.60
2018-06-27T03:27:01.555Z,5.30
2018-06-27T03:28:01.548Z,6.40
2018-06-27T03:29:01.540Z,5.40
2018-06-27T03:30:01.540Z,5.90
2018-06-27T03:31:01.532Z,5.60
2018-06-27T03:32:01.524Z,5.80
2018-06-27T03:33:01.510Z,6.10
2018-06-27T03:34:01.503Z,6.20
2018-06-27T03:35:01.497Z,5.80
2018-06-27T03:36:01.486Z,6.20
2018-06-27T03:37:01.473Z,5.40
2018-06-27T03:38:01.468Z,5.80
2018-06-27T03:39:01.458Z,5.60
2018-06-27T03:40:01.453Z,4.90
2018-06-27T03:41:01.443Z,5.60
2018-06-27T03:42:01.431Z,5.60
2018-06-27T03:43:01.422Z,6.00
2018-06-27T03:44:01.421Z,5.90
2018-06-27T03:45:01.409Z,5.60
2018-06-27T03:46:01.399Z,5.00
2018-06-27T03:47:01.391Z,4.50
2018-06-27T03:48:01.385Z,5.90
2018-06-27T03:49:01.374Z,5.90
2018-06-27T03:50:01.367Z,5.60
2018-06-27T03:51:01.358Z,5.30
2018-06-27T03:52:01.349Z,5.60
2018-06-27T03:53:01.340Z,5.80
2018-06-27T03:54:01.330Z,5.50
2018-06-27T03:55:01.323Z,5.60
2018-06-27T03:56:01.319Z,6.50
2018-06-27T03:57:01.308Z,5.70
2018-06-27T03:58:01.297Z,5.70
2018-06-27T03:59:01.958Z,5.10
2018-06-27T04:00:01.281Z,5.50
2018-06-27T04:01:01.276Z,5.70
2018-06-27T04:02:01.264Z,5.70
2018-06-27T04:03:01.260Z,4.60
2018-06-27T04:04:01.252Z,6.70
2018-06-27T04:05:01.242Z,5.50
2018-06-27T04:06:01.232Z,5.50
2018-06-27T04:07:01.222Z,5.50
2018-06-27T04:08:01.217Z,5.50
2018-06-27T04:09:01.206Z,5.20
2018-06-27T04:10:01.201Z,5.20
2018-06-27T04:11:01.190Z,4.80
2018-06-27T04:12:01.182Z,5.00
2018-06-27T04:13:01.490Z,5.20
2018-06-27T04:14:01.168Z,5.40
2018-06-27T04:15:01.161Z,5.40
2018-06-27T04:16:01.149Z,4.80
2018-06-27T04:17:01.143Z,5.30
2018-06-27T04:18:01.334Z,5.20
2018-06-27T04:19:01.125Z,5.30
2018-06-27T04:20:01.120Z,5.60
2018-06-27T04:21:01.108Z,5.50
2018-06-27T04:22:01.099Z,4.90
2018-06-27T04:23:01.093Z,5.20
2018-06-27T04:24:01.083Z,5.70
2018-06-27T04:25:01.079Z,5.20
2018-06-27T04:26:01.071Z,5.10
2018-06-27T04:27:01.062Z,4.80
2018-06-27T04:28:01.054Z,5.50
2018-06-27T04:29:01.045Z,5.20
2018-06-27T04:30:01.034Z,5.50
2018-06-27T04:31:01.029Z,5.80
2018-06-27T04:32:01.018Z,5.40
2018-06-27T04:33:01.010Z,4.90
2018-06-27T04:34:01.001Z,4.70
2018-06-27T04:35:01.003Z,4.60
2018-06-27T04:36:01.056Z,4.60
2018-06-27T04:37:00.980Z,6.00
2018-06-27T04:38:00.980Z,4.90
2018-06-27T04:39:00.967Z,6.20
2018-06-27T04:40:01.159Z,5.30
2018-06-27T04:41:00.950Z,5.40
2018-06-27T04:42:00.939Z,5.50
2018-06-27T04:43:00.929Z,5.60
2018-06-27T04:44:00.922Z,5.30
2018-06-27T04:45:00.914Z,5.30
2018-06-27T04:46:00.907Z,5.10
2018-06-27T04:47:00.898Z,6.20
2018-06-27T04:48:00.891Z,4.90
2018-06-27T04:49:00.882Z,6.20
2018-06-27T04:50:00.878Z,6.50
2018-06-27T04:51:00.866Z,6.30
2018-06-27T04:52:00.860Z,6.10
2018-06-27T04:53:00.851Z,5.70
2018-06-27T04:54:00.842Z,6.60
2018-06-27T04:55:00.891Z,5.30
2018-06-27T04:56:00.831Z,6.30
2018-06-27T04:57:00.819Z,4.90
2018-06-27T04:58:00.815Z,5.60
2018-06-27T04:59:00.805Z,6.00
2018-06-27T05:00:00.795Z,5.20
2018-06-27T05:01:00.787Z,5.50
2018-06-27T05:02:00.781Z,5.60
2018-06-27T05:03:00.981Z,5.80
2018-06-27T05:04:00.768Z,5.30
2018-06-27T05:05:00.762Z,5.40
2018-06-27T05:06:00.752Z,6.30
2018-06-27T05:07:00.741Z,5.60
2018-06-27T05:08:00.735Z,5.60
2018-06-27T05:09:00.726Z,6.00
2018-06-27T05:10:00.718Z,6.30
2018-06-27T05:11:00.715Z,5.80
2018-06-27T05:12:00.703Z,5.30
2018-06-27T05:13:00.699Z,5.60
2018-06-27T05:14:00.889Z,5.00
2018-06-27T05:15:00.680Z,5.80
2018-06-27T05:16:00.689Z,4.90
2018-06-27T05:17:00.670Z,5.80
2018-06-27T05:18:00.658Z,5.90
2018-06-27T05:19:00.651Z,6.70
2018-06-27T05:20:00.645Z,6.20
2018-06-27T05:21:00.636Z,5.30
2018-06-27T05:22:00.634Z,6.80
2018-06-27T05:23:00.621Z,5.20
2018-06-27T05:24:00.614Z,6.70
2018-06-27T05:25:00.608Z,6.80
2018-06-27T05:26:00.599Z,6.20
2018-06-27T05:27:00.592Z,6.40
2018-06-27T05:28:00.585Z,6.10
2018-06-27T05:29:00.581Z,5.90
2018-06-27T05:30:00.570Z,6.20
2018-06-27T05:31:00.567Z,7.50
2018-06-27T05:32:00.758Z,6.90
2018-06-27T05:33:00.550Z,6.60
2018-06-27T05:34:00.653Z,6.20
2018-06-27T05:35:00.539Z,6.50
2018-06-27T05:36:00.528Z,6.30
2018-06-27T05:37:00.523Z,6.50
2018-06-27T05:38:00.518Z,6.50
2018-06-27T05:39:00.506Z,6.00
2018-06-27T05:40:00.508Z,5.90
2018-06-27T05:41:00.493Z,7.30
2018-06-27T05:42:00.489Z,6.30
2018-06-27T05:43:00.483Z,6.70
2018-06-27T05:44:00.472Z,6.20
2018-06-27T05:45:00.471Z,6.30
2018-06-27T05:46:00.459Z,6.00
2018-06-27T05:47:00.452Z,7.60
2018-06-27T05:48:00.447Z,5.30
2018-06-27T05:49:00.439Z,6.70
2018-06-27T05:50:00.431Z,6.60
2018-06-27T05:51:00.426Z,6.70
2018-06-27T05:52:00.623Z,7.40
2018-06-27T05:53:00.413Z,7.00
2018-06-27T05:54:00.409Z,7.20
2018-06-27T05:55:00.398Z,6.40
2018-06-27T05:56:00.396Z,6.60
2018-06-27T05:57:00.388Z,6.40
2018-06-27T05:58:00.386Z,5.60
2018-06-27T05:59:00.371Z,7.50
2018-06-27T06:00:00.367Z,6.70
2018-06-27T06:01:00.364Z,6.60
2018-06-27T06:02:00.352Z,7.20
2018-06-27T06:03:00.352Z,5.90
2018-06-27T06:04:00.340Z,6.60
2018-06-27T06:05:00.536Z,6.30
2018-06-27T06:06:00.329Z,6.00
2018-06-27T06:07:00.328Z,6.50
2018-06-27T06:08:00.314Z,6.30
2018-06-27T06:09:00.308Z,6.00
2018-06-27T06:10:00.311Z,6.00
2018-06-27T06:11:00.297Z,6.90
2018-06-27T06:12:00.291Z,6.20
2018-06-27T06:13:00.284Z,6.50
2018-06-27T06:14:00.282Z,5.80
2018-06-27T06:15:00.273Z,7.00
2018-06-27T06:16:00.268Z,7.50
2018-06-27T06:17:00.264Z,6.50
2018-06-27T06:18:00.257Z,5.20
2018-06-27T06:19:00.248Z,7.10
2018-06-27T06:20:00.246Z,7.20
2018-06-27T06:21:00.242Z,6.20
2018-06-27T06:22:00.231Z,5.70
2018-06-27T06:23:00.229Z,6.00
2018-06-27T06:24:00.422Z,6.80
2018-06-27T06:25:00.215Z,6.10
2018-06-27T06:26:00.208Z,6.30
2018-06-27T06:27:00.206Z,6.50
2018-06-27T06:28:00.197Z,6.20
2018-06-27T06:29:00.193Z,7.10
2018-06-27T06:30:00.186Z,6.90
2018-06-27T06:31:00.184Z,6.40
2018-06-27T06:32:00.180Z,7.40
2018-06-27T06:33:00.174Z,7.10
2018-06-27T06:34:00.164Z,5.90
2018-06-27T06:35:00.159Z,6.10
2018-06-27T06:36:00.154Z,5.80
2018-06-27T06:37:00.148Z,7.00
2018-06-27T06:38:00.142Z,6.90
2018-06-27T06:39:00.138Z,6.80
2018-06-27T06:40:00.133Z,6.60
2018-06-27T06:41:00.131Z,6.80
2018-06-27T06:42:00.121Z,6.30
2018-06-27T06:43:00.117Z,5.90
2018-06-27T06:44:00.115Z,6.60
2018-06-27T06:45:00.110Z,6.20
2018-06-27T06:46:00.120Z,6.30
2018-06-27T06:47:00.100Z,6.40
2018-06-27T06:48:00.092Z,6.80
2018-06-27T06:49:00.091Z,5.80
2018-06-27T06:50:00.084Z,6.70
2018-06-27T06:51:00.078Z,7.60
2018-06-27T06:52:00.076Z,7.30
2018-06-27T06:53:00.069Z,7.10
2018-06-27T06:54:00.067Z,6.50
2018-06-27T06:55:00.065Z,5.50
2018-06-27T06:56:00.055Z,6.40
2018-06-27T06:57:00.055Z,7.20
2018-06-27T06:58:00.248Z,6.60
2018-06-27T06:59:00.044Z,7.20
2018-06-27T07:00:00.048Z,6.40
2018-06-27T07:01:00.047Z,6.50
2018-06-27T07:02:00.032Z,8.10
2018-06-27T07:03:00.025Z,7.10
2018-06-27T07:04:00.029Z,6.80
2018-06-27T07:05:00.131Z,6.20
2018-06-27T07:06:00.013Z,6.70
2018-06-27T07:07:00.008Z,7.50
2018-06-27T07:08:00.012Z,6.80
2018-06-27T07:09:00.803Z,6.70
2018-06-27T07:09:59.995Z,6.40
2018-06-27T07:11:00.030Z,7.00
2018-06-27T07:11:59.989Z,5.30
2018-06-27T07:12:59.991Z,6.80
2018-06-27T07:13:59.985Z,6.80
2018-06-27T07:14:59.980Z,6.70
2018-06-27T07:15:59.979Z,6.90
2018-06-27T07:16:59.976Z,6.90
2018-06-27T07:17:59.974Z,6.20
2018-06-27T07:18:59.973Z,7.10
2018-06-27T07:19:59.966Z,6.90
2018-06-27T07:20:59.967Z,6.20
2018-06-27T07:21:59.961Z,7.30
2018-06-27T07:22:59.964Z,6.40
2018-06-27T07:23:59.959Z,5.80
2018-06-27T07:24:59.963Z,6.90
2018-06-27T07:25:59.963Z,6.10
2018-06-27T07:26:59.955Z,6.20
2018-06-27T07:28:00.156Z,6.60
2018-06-27T07:28:59.954Z,6.40
2018-06-27T07:30:00.010Z,6.40
2018-06-27T07:30:59.951Z,5.90
2018-06-27T07:32:00.157Z,6.60
2018-06-27T07:32:59.949Z,5.90
2018-06-27T07:33:59.948Z,6.30
2018-06-27T07:34:59.949Z,5.70
2018-06-27T07:35:59.971Z,5.50
2018-06-27T07:36:59.948Z,5.80
2018-06-27T07:37:59.948Z,6.60
2018-06-27T07:38:59.955Z,6.30
2018-06-27T07:39:59.951Z,6.20
2018-06-27T07:40:59.953Z,7.00
2018-06-27T07:41:59.954Z,6.90
2018-06-27T07:42:59.963Z,6.30
2018-06-27T07:43:59.965Z,7.00
2018-06-27T07:44:59.965Z,5.60
2018-06-27T07:45:59.969Z,6.00
2018-06-27T07:46:59.973Z,5.90
2018-06-27T07:47:59.983Z,6.20
2018-06-27T07:48:59.985Z,6.30
2018-06-27T07:49:59.990Z,6.20
2018-06-27T07:51:00.199Z,6.60
2018-06-27T07:52:00.008Z,7.20
2018-06-27T07:53:00.030Z,6.30
2018-06-27T07:54:00.018Z,5.40
2018-06-27T07:55:00.036Z,6.40
2018-06-27T07:56:00.044Z,5.90
2018-06-27T07:57:00.042Z,6.80
2018-06-27T07:58:00.050Z,6.10
2018-06-27T07:59:00.056Z,6.30
2018-06-27T08:00:00.101Z,6.50
2018-06-27T08:01:00.082Z,6.60
2018-06-27T08:02:00.083Z,6.80
2018-06-27T08:03:00.090Z,5.40
2018-06-27T08:04:00.101Z,6.10
2018-06-27T08:05:00.114Z,6.40
2018-06-27T08:06:00.222Z,5.80
2018-06-27T08:07:00.128Z,5.60
2018-06-27T08:08:00.140Z,5.70
2018-06-27T08:09:00.148Z,5.80
2018-06-27T08:10:00.157Z,6.10
2018-06-27T08:11:00.172Z,6.40
2018-06-27T08:12:00.181Z,5.60
2018-06-27T08:13:00.189Z,6.00
2018-06-27T08:14:00.199Z,5.10
2018-06-27T08:15:00.212Z,5.60
2018-06-27T08:16:00.220Z,6.20
2018-06-27T08:17:00.232Z,6.50
2018-06-27T08:18:00.465Z,5.80
2018-06-27T08:19:00.260Z,6.10
2018-06-27T08:20:00.267Z,6.40
2018-06-27T08:21:00.277Z,6.40
2018-06-27T08:22:00.290Z,6.40
2018-06-27T08:23:00.299Z,5.70
2018-06-27T08:24:00.311Z,6.50
2018-06-27T08:25:00.327Z,6.50
2018-06-27T08:26:00.380Z,6.20
2018-06-27T08:27:00.347Z,5.80
2018-06-27T08:28:00.361Z,6.50
2018-06-27T08:29:00.373Z,5.80
2018-06-27T08:30:00.386Z,6.20
2018-06-27T08:31:00.396Z,4.50
2018-06-27T08:32:00.407Z,4.90
2018-06-27T08:33:00.420Z,5.40
2018-06-27T08:34:00.432Z,6.00
2018-06-27T08:35:00.445Z,5.40
2018-06-27T08:36:00.457Z,5.80
2018-06-27T08:37:00.473Z,5.30
2018-06-27T08:38:00.483Z,5.00
2018-06-27T08:39:00.495Z,5.10
2018-06-27T08:40:00.509Z,5.70
2018-06-27T08:41:00.527Z,4.80
2018-06-27T08:42:00.742Z,5.30
2018-06-27T08:43:00.547Z,5.20
2018-06-27T08:44:00.561Z,5.10
2018-06-27T08:46:00.591Z,5.10
2018-06-27T08:47:00.600Z,4.80
2018-06-27T08:48:00.623Z,6.00
2018-06-27T08:49:00.627Z,5.20
2018-06-27T08:50:00.648Z,4.70
2018-06-27T08:51:00.654Z,5.70
2018-06-27T08:52:00.669Z,4.40
2018-06-27T08:53:00.687Z,5.50
2018-06-27T08:54:00.697Z,5.10
2018-06-27T08:55:00.712Z,4.60
2018-06-27T08:56:00.722Z,4.60
2018-06-27T08:57:00.736Z,4.80
2018-06-27T08:58:00.956Z,5.00
2018-06-27T08:59:00.763Z,4.30
2018-06-27T09:00:00.779Z,4.30
2018-06-27T09:01:00.791Z,5.50
2018-06-27T09:02:00.809Z,4.40
2018-06-27T09:03:00.828Z,4.60
2018-06-27T09:04:00.833Z,4.90
2018-06-27T09:05:00.848Z,4.40
2018-06-27T09:06:00.861Z,4.40
2018-06-27T09:07:00.875Z,4.60
2018-06-27T09:08:00.899Z,4.00
2018-06-27T09:09:00.904Z,4.60
2018-06-27T09:10:01.120Z,4.40
2018-06-27T09:11:00.932Z,4.00
2018-06-27T09:12:00.947Z,4.30
2018-06-27T09:13:00.964Z,4.10
2018-06-27T09:14:01.178Z,3.80
2018-06-27T09:15:00.990Z,3.90
2018-06-27T09:16:01.005Z,4.20
2018-06-27T09:17:01.222Z,4.30
2018-06-27T09:18:01.037Z,4.40
2018-06-27T09:19:01.050Z,4.20
2018-06-27T09:20:01.064Z,4.30
2018-06-27T09:21:01.083Z,4.20
2018-06-27T09:22:01.095Z,3.60
2018-06-27T09:23:01.111Z,4.10
2018-06-27T09:24:01.123Z,4.60
2018-06-27T09:25:01.141Z,4.50
2018-06-27T09:26:01.153Z,4.40
2018-06-27T09:27:01.171Z,4.60
2018-06-27T09:28:01.184Z,4.30
2018-06-27T09:29:01.200Z,4.60
2018-06-27T09:30:01.215Z,4.70
2018-06-27T09:31:01.232Z,4.80
2018-06-27T09:32:01.252Z,5.10
2018-06-27T09:33:01.262Z,3.80
2018-06-27T09:34:01.331Z,4.40
2018-06-27T09:35:01.295Z,4.20
2018-06-27T09:36:01.312Z,3.40
2018-06-27T09:37:01.324Z,3.90
2018-06-27T09:38:01.339Z,3.90
2018-06-27T09:39:01.355Z,4.20
2018-06-27T09:40:01.395Z,4.40
2018-06-27T09:41:01.387Z,4.30
2018-06-27T09:42:01.491Z,4.50
2018-06-27T09:43:01.418Z,4.40
2018-06-27T09:44:01.434Z,4.90
2018-06-27T09:45:01.468Z,4.30
2018-06-27T09:46:01.472Z,4.30
2018-06-27T09:47:01.482Z,3.80
2018-06-27T09:48:01.549Z,3.80
2018-06-27T09:49:01.514Z,3.90
2018-06-27T09:50:01.532Z,4.50
2018-06-27T09:51:01.748Z,4.40
2018-06-27T09:52:01.561Z,4.10
2018-06-27T09:53:01.579Z,4.50
2018-06-27T09:54:01.597Z,4.70
2018-06-27T09:55:01.609Z,4.70
2018-06-27T09:56:01.627Z,4.60
2018-06-27T09:57:01.708Z,4.30
2018-06-27T09:58:01.658Z,4.30
2018-06-27T09:59:01.674Z,4.70
2018-06-27T10:00:01.692Z,5.00
2018-06-27T10:01:01.713Z,4.20
2018-06-27T10:02:01.756Z,4.50
2018-06-27T10:03:01.741Z,4.50
2018-06-27T10:04:01.960Z,4.50
2018-06-27T10:05:01.785Z,4.40
2018-06-27T10:06:01.789Z,4.50
2018-06-27T10:07:01.806Z,4.10
2018-06-27T10:08:01.830Z,4.50
2018-06-27T10:09:01.847Z,4.50
2018-06-27T10:10:01.859Z,4.70
2018-06-27T10:11:01.886Z,4.20
2018-06-27T10:12:01.892Z,4.80
2018-06-27T10:13:01.910Z,4.70
2018-06-27T10:14:01.925Z,5.20
2018-06-27T10:15:01.942Z,4.30
2018-06-27T10:16:01.964Z,4.40
2018-06-27T10:17:02.060Z,4.90
2018-06-27T10:18:01.992Z,4.70
2018-06-27T10:19:02.011Z,4.30
2018-06-27T10:20:02.031Z,4.70
2018-06-27T10:21:02.045Z,4.50
2018-06-27T10:22:02.059Z,4.70
2018-06-27T10:23:02.077Z,5.10
2018-06-27T10:24:02.094Z,4.70
2018-06-27T10:25:02.118Z,4.80
2018-06-27T10:26:02.134Z,3.90
2018-06-27T10:27:02.148Z,4.30
2018-06-27T10:28:02.165Z,4.80
2018-06-27T10:29:02.181Z,4.70
2018-06-27T10:30:02.197Z,4.70
2018-06-27T10:31:02.214Z,4.50
2018-06-27T10:32:02.231Z,4.50
2018-06-27T10:33:02.252Z,5.80
2018-06-27T10:34:02.265Z,4.70
2018-06-27T10:35:02.487Z,4.40
2018-06-27T10:36:02.304Z,4.00
2018-06-27T10:37:02.320Z,4.60
2018-06-27T10:38:02.338Z,4.30
2018-06-27T10:39:02.352Z,4.80
2018-06-27T10:40:02.373Z,4.00
2018-06-27T10:41:02.387Z,4.40
2018-06-27T10:42:02.406Z,4.10
2018-06-27T10:43:02.424Z,4.10
2018-06-27T10:44:02.440Z,3.90
2018-06-27T10:45:02.460Z,4.80
2018-06-27T10:46:02.474Z,3.80
2018-06-27T10:47:02.492Z,4.40
2018-06-27T10:48:02.520Z,4.40
2018-06-27T10:49:02.531Z,4.20
2018-06-27T10:50:02.544Z,4.50
2018-06-27T10:51:02.565Z,4.00
2018-06-27T10:52:02.586Z,4.20
2018-06-27T10:53:02.601Z,4.20
2018-06-27T10:54:02.615Z,4.60
2018-06-27T10:55:02.635Z,4.40
2018-06-27T10:56:02.652Z,4.10
2018-06-27T10:57:02.677Z,4.20
2018-06-27T10:58:02.697Z,4.00
2018-06-27T10:59:02.709Z,4.20
2018-06-27T11:00:02.723Z,4.40
2018-06-27T11:01:02.802Z,4.20
2018-06-27T11:02:02.759Z,3.40
2018-06-27T11:03:02.777Z,3.90
2018-06-27T11:04:02.798Z,4.10
2018-06-27T11:05:02.814Z,4.50
2018-06-27T11:06:02.831Z,4.70
2018-06-27T11:07:02.849Z,5.00
2018-06-27T11:08:02.868Z,5.10
2018-06-27T11:09:02.889Z,5.40
2018-06-27T11:10:02.904Z,5.50
2018-06-27T11:11:02.932Z,5.70
2018-06-27T11:12:02.941Z,6.00
2018-06-27T11:13:02.962Z,6.10
2018-06-27T11:14:02.979Z,6.00
2018-06-27T11:15:03.002Z,6.30
2018-06-27T11:16:03.015Z,6.30
2018-06-27T11:17:03.039Z,6.40
2018-06-27T11:18:03.052Z,6.60
2018-06-27T11:19:03.075Z,6.90
2018-06-27T11:20:03.093Z,6.90
2018-06-27T11:21:03.108Z,6.60
2018-06-27T11:22:03.128Z,6.80
2018-06-27T11:23:03.146Z,6.90
2018-06-27T11:24:03.168Z,6.90
2018-06-27T11:25:03.183Z,6.80
2018-06-27T11:26:03.203Z,7.10
2018-06-27T11:27:03.295Z,7.10
2018-06-27T11:28:03.239Z,7.10
2018-06-27T11:29:03.263Z,7.20
2018-06-27T11:30:03.276Z,6.80
2018-06-27T11:31:03.298Z,6.90
2018-06-27T11:32:03.313Z,6.90
2018-06-27T11:33:03.333Z,6.80
2018-06-27T11:34:03.351Z,6.70
2018-06-27T11:35:03.371Z,6.50
2018-06-27T11:36:03.389Z,6.40
2018-06-27T11:37:03.411Z,6.20
2018-06-27T11:38:03.428Z,6.10
2018-06-27T11:39:03.446Z,6.00
2018-06-27T11:40:03.466Z,5.70
2018-06-27T11:41:03.481Z,5.40
2018-06-27T11:42:03.499Z,5.50
2018-06-27T11:43:03.521Z,5.20
2018-06-27T11:44:03.535Z,5.00
2018-06-27T11:45:03.554Z,4.80
2018-06-27T11:46:03.779Z,4.90
2018-06-27T11:47:03.589Z,4.80
2018-06-27T11:48:03.610Z,4.60
2018-06-27T11:49:03.627Z,4.70
2018-06-27T11:50:03.643Z,4.70
2018-06-27T11:51:03.667Z,4.50
2018-06-27T11:52:03.683Z,4.70
2018-06-27T11:53:03.700Z,4.70
2018-06-27T11:54:03.714Z,5.00
2018-06-27T11:55:03.939Z,4.70
2018-06-27T11:56:03.755Z,4.80
2018-06-27T11:57:03.770Z,4.70
2018-06-27T11:58:03.787Z,4.80
2018-06-27T11:59:03.808Z,5.00
2018-06-27T12:00:03.824Z,4.90
2018-06-27T12:01:03.842Z,4.70
2018-06-27T12:02:03.864Z,4.60
2018-06-27T12:03:03.880Z,4.80
2018-06-27T12:04:03.896Z,4.30
2018-06-27T12:05:03.918Z,4.10
2018-06-27T12:06:03.933Z,4.20
2018-06-27T12:07:04.151Z,4.10
2018-06-27T12:08:03.968Z,4.00
2018-06-27T12:09:03.985Z,4.10
2018-06-27T12:10:04.004Z,4.00
2018-06-27T12:11:04.019Z,3.80
2018-06-27T12:12:04.037Z,3.70
2018-06-27T12:13:04.061Z,3.70
2018-06-27T12:14:04.071Z,3.90
2018-06-27T12:15:04.089Z,4.00
2018-06-27T12:16:04.107Z,3.80
2018-06-27T12:17:04.130Z,3.80
2018-06-27T12:18:04.142Z,3.70
2018-06-27T12:19:04.160Z,3.70
2018-06-27T12:20:04.184Z,3.80
2018-06-27T12:21:04.204Z,3.80
2018-06-27T12:22:04.212Z,3.80
2018-06-27T12:23:04.231Z,3.70
2018-06-27T12:24:04.247Z,3.70
2018-06-27T12:25:04.269Z,3.60
2018-06-27T12:26:04.281Z,3.50
2018-06-27T12:27:04.305Z,3.60
2018-06-27T12:28:04.317Z,3.50
2018-06-27T12:29:04.339Z,3.50
2018-06-27T12:30:04.353Z,3.30
2018-06-27T12:31:04.369Z,3.40
2018-06-27T12:32:04.389Z,3.20
2018-06-27T12:33:04.406Z,3.10
2018-06-27T12:34:04.423Z,3.20
2018-06-27T12:35:04.437Z,3.30
2018-06-27T12:36:04.459Z,3.30
2018-06-27T12:37:04.473Z,3.20
2018-06-27T12:38:04.492Z,3.30
2018-06-27T12:39:04.511Z,3.20
2018-06-27T12:40:04.524Z,3.10
2018-06-27T12:41:04.541Z,3.10
2018-06-27T12:42:04.760Z,3.00
2018-06-27T12:43:04.780Z,3.00
2018-06-27T12:44:04.592Z,3.00
2018-06-27T12:45:04.614Z,2.90
2018-06-27T12:46:04.625Z,3.10
2018-06-27T12:47:04.642Z,3.00
2018-06-27T12:48:04.663Z,3.00
2018-06-27T12:49:04.683Z,3.00
2018-06-27T12:50:04.824Z,2.90
2018-06-27T12:51:04.711Z,2.90
2018-06-27T12:52:04.729Z,3.00
2018-06-27T12:53:04.745Z,2.90
2018-06-27T12:54:04.764Z,3.00
2018-06-27T12:55:04.778Z,3.00
2018-06-27T12:56:04.797Z,2.80
2018-06-27T12:57:04.814Z,2.50
2018-06-27T12:58:04.831Z,2.50
2018-06-27T12:59:04.849Z,2.40
2018-06-27T13:00:04.863Z,2.30
2018-06-27T13:01:04.882Z,2.30
2018-06-27T13:02:04.896Z,2.30
2018-06-27T13:03:04.907Z,2.30
2018-06-27T13:04:04.923Z,2.20
2018-06-27T13:05:04.943Z,2.20
2018-06-27T13:06:04.955Z,2.10
2018-06-27T13:07:05.011Z,1.90
2018-06-27T13:08:04.985Z,2.00
2018-06-27T13:09:05.082Z,2.00
2018-06-27T13:10:05.015Z,2.00
2018-06-27T13:11:05.030Z,2.10
2018-06-27T13:12:05.048Z,1.80
2018-06-27T13:13:05.061Z,1.80
2018-06-27T13:14:05.075Z,1.90
2018-06-27T13:15:05.093Z,1.80
2018-06-27T13:16:05.111Z,1.80
2018-06-27T13:17:05.119Z,1.70
2018-06-27T13:18:05.137Z,1.70
2018-06-27T13:19:05.153Z,1.70